sensor_id;sensor_type;location;lat;lon;timestamp;temperature;humidity
3360;DHT22;1693;49.602;11.046;2023-06-14T14:10:03;30.30;43.20
3360;DHT22;1693;49.602;11.046;2023-06-14T14:14:58;28.80;46.00
3360;DHT22;1693;49.602;11.046;2023-06-14T14:17:25;27.80;45.10
3360;DHT22;1693;49.602;11.046;2023-06-14T14:19:52;27.30;47.10
3360;DHT22;1693;49.602;11.046;2023-06-14T14:22:19;27.80;46.80
3360;DHT22;1693;49.602;11.046;2023-06-14T14:27:16;29.40;42.80
3360;DHT22;1693;49.602;11.046;2023-06-14T14:29:43;29.30;46.80
3360;DHT22;1693;49.602;11.046;2023-06-14T14:32:10;29.20;45.90
3360;DHT22;1693;49.602;11.046;2023-06-14T14:34:39;29.70;46.50
3360;DHT22;1693;49.602;11.046;2023-06-14T14:37:06;31.10;47.80
3360;DHT22;1693;49.602;11.046;2023-06-14T14:39:33;31.70;47.20
3360;DHT22;1693;49.602;11.046;2023-06-14T14:42:00;29.90;45.50
3360;DHT22;1693;49.602;11.046;2023-06-14T14:44:30;29.50;48.00
3360;DHT22;1693;49.602;11.046;2023-06-14T14:46:57;28.80;48.20
3360;DHT22;1693;49.602;11.046;2023-06-14T14:51:53;31.20;46.00
3360;DHT22;1693;49.602;11.046;2023-06-14T14:54:22;32.30;44.80
3360;DHT22;1693;49.602;11.046;2023-06-14T14:56:52;31.50;44.40
3360;DHT22;1693;49.602;11.046;2023-06-14T14:59:23;31.60;43.30
3360;DHT22;1693;49.602;11.046;2023-06-14T15:01:55;32.50;43.80
3360;DHT22;1693;49.602;11.046;2023-06-14T15:04:22;32.50;43.60
3360;DHT22;1693;49.602;11.046;2023-06-14T15:06:49;31.80;42.70
3360;DHT22;1693;49.602;11.046;2023-06-14T15:09:16;32.50;44.20
3360;DHT22;1693;49.602;11.046;2023-06-14T15:11:43;32.40;42.80
3360;DHT22;1693;49.602;11.046;2023-06-14T15:14:10;35.10;41.20
3360;DHT22;1693;49.602;11.046;2023-06-14T15:16:37;33.60;42.20
3360;DHT22;1693;49.602;11.046;2023-06-14T15:19:07;33.40;43.40
3360;DHT22;1693;49.602;11.046;2023-06-14T15:21:34;33.30;41.30
3360;DHT22;1693;49.602;11.046;2023-06-14T15:24:01;32.70;41.90
3360;DHT22;1693;49.602;11.046;2023-06-14T15:26:28;32.50;42.20
3360;DHT22;1693;49.602;11.046;2023-06-14T15:28:56;34.40;42.10
3360;DHT22;1693;49.602;11.046;2023-06-14T15:31:23;34.40;43.00
3360;DHT22;1693;49.602;11.046;2023-06-14T15:33:53;35.20;41.80
3360;DHT22;1693;49.602;11.046;2023-06-14T15:36:22;34.30;41.60
3360;DHT22;1693;49.602;11.046;2023-06-14T15:38:49;33.90;42.40
3360;DHT22;1693;49.602;11.046;2023-06-14T15:41:16;34.10;41.80
3360;DHT22;1693;49.602;11.046;2023-06-14T15:43:45;35.80;40.70
3360;DHT22;1693;49.602;11.046;2023-06-14T15:46:13;35.40;40.80
3360;DHT22;1693;49.602;11.046;2023-06-14T15:48:40;33.90;40.50
3360;DHT22;1693;49.602;11.046;2023-06-14T15:51:08;33.70;39.50
3360;DHT22;1693;49.602;11.046;2023-06-14T15:53:36;34.30;40.80
3360;DHT22;1693;49.602;11.046;2023-06-14T15:56:04;33.30;37.50
3360;DHT22;1693;49.602;11.046;2023-06-14T15:58:31;33.20;39.10
3360;DHT22;1693;49.602;11.046;2023-06-14T16:00:58;33.50;40.10
3360;DHT22;1693;49.602;11.046;2023-06-14T16:03:25;32.60;40.00
3360;DHT22;1693;49.602;11.046;2023-06-14T16:05:53;33.00;39.90
3360;DHT22;1693;49.602;11.046;2023-06-14T16:08:20;32.80;40.00
3360;DHT22;1693;49.602;11.046;2023-06-14T16:10:48;33.70;40.10
3360;DHT22;1693;49.602;11.046;2023-06-14T16:13:15;33.60;40.60
3360;DHT22;1693;49.602;11.046;2023-06-14T16:15:42;33.90;39.70
3360;DHT22;1693;49.602;11.046;2023-06-14T16:18:10;32.90;40.10
3360;DHT22;1693;49.602;11.046;2023-06-14T16:20:40;33.10;40.80
3360;DHT22;1693;49.602;11.046;2023-06-14T16:23:25;33.50;40.80
3360;DHT22;1693;49.602;11.046;2023-06-14T16:26:12;33.10;39.80
3360;DHT22;1693;49.602;11.046;2023-06-14T16:28:39;32.70;38.80
3360;DHT22;1693;49.602;11.046;2023-06-14T16:31:07;33.70;37.20
3360;DHT22;1693;49.602;11.046;2023-06-14T16:33:35;32.80;38.60
3360;DHT22;1693;49.602;11.046;2023-06-14T16:36:02;33.40;39.30
3360;DHT22;1693;49.602;11.046;2023-06-14T16:38:31;34.90;38.30
3360;DHT22;1693;49.602;11.046;2023-06-14T16:40:59;33.90;38.30
3360;DHT22;1693;49.602;11.046;2023-06-14T16:43:27;32.90;38.80
3360;DHT22;1693;49.602;11.046;2023-06-14T16:45:54;32.90;40.40
3360;DHT22;1693;49.602;11.046;2023-06-14T16:48:22;33.30;41.00
3360;DHT22;1693;49.602;11.046;2023-06-14T16:50:50;33.40;40.00
3360;DHT22;1693;49.602;11.046;2023-06-14T16:53:17;32.80;39.70
3360;DHT22;1693;49.602;11.046;2023-06-14T16:55:44;33.40;40.70
3360;DHT22;1693;49.602;11.046;2023-06-14T17:03:07;32.90;39.30
3360;DHT22;1693;49.602;11.046;2023-06-14T17:05:35;32.50;39.70
3360;DHT22;1693;49.602;11.046;2023-06-14T17:08:02;31.80;39.80
3360;DHT22;1693;49.602;11.046;2023-06-14T17:10:29;32.10;40.90
3360;DHT22;1693;49.602;11.046;2023-06-14T17:12:56;31.90;39.00
3360;DHT22;1693;49.602;11.046;2023-06-14T17:15:25;32.20;39.90
3360;DHT22;1693;49.602;11.046;2023-06-14T17:20:22;32.00;40.40
3360;DHT22;1693;49.602;11.046;2023-06-14T17:22:49;32.20;41.00
3360;DHT22;1693;49.602;11.046;2023-06-14T17:25:16;32.30;40.50
3360;DHT22;1693;49.602;11.046;2023-06-14T17:27:43;32.60;40.30
3360;DHT22;1693;49.602;11.046;2023-06-14T17:30:12;31.90;40.60
3360;DHT22;1693;49.602;11.046;2023-06-14T17:32:40;30.80;40.10
3360;DHT22;1693;49.602;11.046;2023-06-14T17:35:09;30.50;40.60
3360;DHT22;1693;49.602;11.046;2023-06-14T17:37:39;30.30;40.90
3360;DHT22;1693;49.602;11.046;2023-06-14T17:40:07;30.70;42.00
3360;DHT22;1693;49.602;11.046;2023-06-14T17:42:35;30.90;41.70
3360;DHT22;1693;49.602;11.046;2023-06-14T17:52:29;29.10;40.90
3360;DHT22;1693;49.602;11.046;2023-06-14T17:54:56;29.50;42.80
3360;DHT22;1693;49.602;11.046;2023-06-14T17:57:24;30.50;43.00
3360;DHT22;1693;49.602;11.046;2023-06-14T17:59:51;30.00;43.10
3360;DHT22;1693;49.602;11.046;2023-06-14T18:02:20;29.30;44.80
3360;DHT22;1693;49.602;11.046;2023-06-14T18:04:47;29.10;44.30
3360;DHT22;1693;49.602;11.046;2023-06-14T18:07:14;28.60;44.40
3360;DHT22;1693;49.602;11.046;2023-06-14T18:09:43;27.20;45.80
3360;DHT22;1693;49.602;11.046;2023-06-14T18:12:10;26.20;47.20
3360;DHT22;1693;49.602;11.046;2023-06-14T18:14:37;25.70;48.60
3360;DHT22;1693;49.602;11.046;2023-06-14T18:17:04;24.90;49.80
3360;DHT22;1693;49.602;11.046;2023-06-14T18:19:32;24.30;50.60
3360;DHT22;1693;49.602;11.046;2023-06-14T18:22:01;23.60;50.60
3360;DHT22;1693;49.602;11.046;2023-06-14T18:24:30;23.30;51.90
3360;DHT22;1693;49.602;11.046;2023-06-14T18:26:59;23.20;52.20
3360;DHT22;1693;49.602;11.046;2023-06-14T18:29:26;23.20;52.60
3360;DHT22;1693;49.602;11.046;2023-06-14T18:31:53;23.10;53.40
3360;DHT22;1693;49.602;11.046;2023-06-14T18:34:20;23.50;53.10
3360;DHT22;1693;49.602;11.046;2023-06-14T18:36:48;23.20;53.10
3360;DHT22;1693;49.602;11.046;2023-06-14T18:39:15;23.40;53.90
3360;DHT22;1693;49.602;11.046;2023-06-14T18:41:44;23.10;53.50
3360;DHT22;1693;49.602;11.046;2023-06-14T18:44:13;22.80;54.00
3360;DHT22;1693;49.602;11.046;2023-06-14T18:46:40;22.90;54.40
3360;DHT22;1693;49.602;11.046;2023-06-14T18:49:08;22.60;54.90
3360;DHT22;1693;49.602;11.046;2023-06-14T18:51:35;22.20;65.00
3360;DHT22;1693;49.602;11.046;2023-06-14T18:54:04;22.00;65.20
3360;DHT22;1693;49.602;11.046;2023-06-14T18:56:32;21.80;64.40
3360;DHT22;1693;49.602;11.046;2023-06-14T18:58:59;21.70;66.70
3360;DHT22;1693;49.602;11.046;2023-06-14T19:08:52;21.10;92.20
3360;DHT22;1693;49.602;11.046;2023-06-14T19:18:42;20.70;93.80
3360;DHT22;1693;49.602;11.046;2023-06-14T19:21:09;20.50;84.10
3360;DHT22;1693;49.602;11.046;2023-06-14T19:23:36;20.40;60.60
3360;DHT22;1693;49.602;11.046;2023-06-14T19:26:04;20.40;61.60
3360;DHT22;1693;49.602;11.046;2023-06-14T19:28:31;20.30;61.80
3360;DHT22;1693;49.602;11.046;2023-06-14T19:30:58;20.20;62.50
3360;DHT22;1693;49.602;11.046;2023-06-14T19:33:25;20.20;62.90
3360;DHT22;1693;49.602;11.046;2023-06-14T19:35:55;20.10;63.00
3360;DHT22;1693;49.602;11.046;2023-06-14T19:38:23;19.90;65.10
3360;DHT22;1693;49.602;11.046;2023-06-14T19:40:50;19.80;65.40
3360;DHT22;1693;49.602;11.046;2023-06-14T19:43:17;19.60;66.20
3360;DHT22;1693;49.602;11.046;2023-06-14T19:45:44;19.40;66.20
3360;DHT22;1693;49.602;11.046;2023-06-14T19:48:12;19.40;68.10
3360;DHT22;1693;49.602;11.046;2023-06-14T19:50:40;19.40;69.30
3360;DHT22;1693;49.602;11.046;2023-06-14T19:53:14;19.40;70.70
3360;DHT22;1693;49.602;11.046;2023-06-14T19:55:44;19.20;70.20
3360;DHT22;1693;49.602;11.046;2023-06-14T19:58:12;19.10;71.50
3360;DHT22;1693;49.602;11.046;2023-06-14T20:00:39;19.10;71.50
3360;DHT22;1693;49.602;11.046;2023-06-14T20:03:06;19.10;71.30
3360;DHT22;1693;49.602;11.046;2023-06-14T20:05:33;19.00;70.90
3360;DHT22;1693;49.602;11.046;2023-06-14T20:08:02;18.90;73.20
3360;DHT22;1693;49.602;11.046;2023-06-14T20:10:32;18.80;73.80
3360;DHT22;1693;49.602;11.046;2023-06-14T20:12:59;18.70;75.00
3360;DHT22;1693;49.602;11.046;2023-06-14T20:15:26;18.70;75.60
3360;DHT22;1693;49.602;11.046;2023-06-14T20:17:53;18.70;75.90
3360;DHT22;1693;49.602;11.046;2023-06-14T20:20:20;18.60;76.80
3360;DHT22;1693;49.602;11.046;2023-06-14T20:22:47;18.60;76.10
3360;DHT22;1693;49.602;11.046;2023-06-14T20:25:14;18.40;78.20
3360;DHT22;1693;49.602;11.046;2023-06-14T20:27:44;18.40;78.40
3360;DHT22;1693;49.602;11.046;2023-06-14T20:30:12;18.30;78.80
3360;DHT22;1693;49.602;11.046;2023-06-14T20:32:40;18.20;79.90
3360;DHT22;1693;49.602;11.046;2023-06-14T20:35:08;18.20;79.60
3360;DHT22;1693;49.602;11.046;2023-06-14T20:37:35;18.20;79.40
3360;DHT22;1693;49.602;11.046;2023-06-14T20:40:03;18.10;80.20
3360;DHT22;1693;49.602;11.046;2023-06-14T20:42:32;18.10;80.80
3360;DHT22;1693;49.602;11.046;2023-06-14T20:45:00;17.90;81.40
3360;DHT22;1693;49.602;11.046;2023-06-14T20:47:28;17.90;81.20
3360;DHT22;1693;49.602;11.046;2023-06-14T20:49:56;17.90;82.00
3360;DHT22;1693;49.602;11.046;2023-06-14T20:52:23;17.80;83.30
3360;DHT22;1693;49.602;11.046;2023-06-14T20:54:51;17.80;82.90
3360;DHT22;1693;49.602;11.046;2023-06-14T20:57:20;17.80;84.10
3360;DHT22;1693;49.602;11.046;2023-06-14T20:59:47;17.70;83.40
3360;DHT22;1693;49.602;11.046;2023-06-14T21:02:16;17.60;84.20
3360;DHT22;1693;49.602;11.046;2023-06-14T21:04:43;17.50;86.80
3360;DHT22;1693;49.602;11.046;2023-06-14T21:07:11;17.60;88.00
3360;DHT22;1693;49.602;11.046;2023-06-14T21:09:38;17.50;88.10
3360;DHT22;1693;49.602;11.046;2023-06-14T21:12:06;17.40;88.90
3360;DHT22;1693;49.602;11.046;2023-06-14T21:14:33;17.40;90.00
3360;DHT22;1693;49.602;11.046;2023-06-14T21:17:01;17.30;90.50
3360;DHT22;1693;49.602;11.046;2023-06-14T21:19:32;17.30;90.90
3360;DHT22;1693;49.602;11.046;2023-06-14T21:21:59;17.20;91.00
3360;DHT22;1693;49.602;11.046;2023-06-14T21:24:26;17.10;91.90
3360;DHT22;1693;49.602;11.046;2023-06-14T21:26:54;17.10;92.10
3360;DHT22;1693;49.602;11.046;2023-06-14T21:29:21;17.10;92.00
3360;DHT22;1693;49.602;11.046;2023-06-14T21:31:48;17.10;92.30
3360;DHT22;1693;49.602;11.046;2023-06-14T21:34:15;17.10;92.40
3360;DHT22;1693;49.602;11.046;2023-06-14T21:36:43;17.10;93.10
3360;DHT22;1693;49.602;11.046;2023-06-14T21:39:10;17.00;92.60
3360;DHT22;1693;49.602;11.046;2023-06-14T21:41:37;17.00;93.20
3360;DHT22;1693;49.602;11.046;2023-06-14T21:44:04;17.00;94.00
3360;DHT22;1693;49.602;11.046;2023-06-14T21:46:32;17.00;94.30
3360;DHT22;1693;49.602;11.046;2023-06-14T21:48:59;16.90;93.90
3360;DHT22;1693;49.602;11.046;2023-06-14T21:51:26;16.80;94.60
3360;DHT22;1693;49.602;11.046;2023-06-14T21:53:55;16.80;95.40
3360;DHT22;1693;49.602;11.046;2023-06-14T21:56:22;16.80;95.10
3360;DHT22;1693;49.602;11.046;2023-06-14T21:58:50;16.80;95.70
3360;DHT22;1693;49.602;11.046;2023-06-14T22:01:17;16.90;95.60
3360;DHT22;1693;49.602;11.046;2023-06-14T22:03:44;16.70;96.20
3360;DHT22;1693;49.602;11.046;2023-06-14T22:06:11;16.70;95.80
3360;DHT22;1693;49.602;11.046;2023-06-14T22:08:39;16.70;96.90
3360;DHT22;1693;49.602;11.046;2023-06-14T22:11:08;16.70;97.00
3360;DHT22;1693;49.602;11.046;2023-06-14T22:13:35;16.70;96.90
3360;DHT22;1693;49.602;11.046;2023-06-14T22:16:04;16.70;97.40
3360;DHT22;1693;49.602;11.046;2023-06-14T22:18:32;16.60;98.10
3360;DHT22;1693;49.602;11.046;2023-06-14T22:21:00;16.50;98.60
3360;DHT22;1693;49.602;11.046;2023-06-14T22:23:28;16.50;98.60
3360;DHT22;1693;49.602;11.046;2023-06-14T22:26:02;16.40;99.10
3360;DHT22;1693;49.602;11.046;2023-06-14T22:28:32;16.50;98.90
3360;DHT22;1693;49.602;11.046;2023-06-14T22:31:05;16.50;99.50
3360;DHT22;1693;49.602;11.046;2023-06-14T22:33:34;16.30;99.50
3360;DHT22;1693;49.602;11.046;2023-06-14T22:36:06;16.10;99.90
3360;DHT22;1693;49.602;11.046;2023-06-14T22:38:35;15.80;99.90
3360;DHT22;1693;49.602;11.046;2023-06-14T22:41:05;15.60;99.90
3360;DHT22;1693;49.602;11.046;2023-06-14T22:43:40;15.40;99.90
3360;DHT22;1693;49.602;11.046;2023-06-14T22:46:10;15.20;99.90
3360;DHT22;1693;49.602;11.046;2023-06-14T22:48:45;15.10;99.90
3360;DHT22;1693;49.602;11.046;2023-06-14T22:51:16;14.90;99.90
3360;DHT22;1693;49.602;11.046;2023-06-14T22:53:44;14.90;99.90
